Terminal Aerodrome Forecast
Issued by NWS Brownsville, TX

Home | Current Version | Previous Version | Text Only | Print | Product List | Glossary On
Versions: 1 2 3 4 5 6 7 8 9 10 11 12 13 14 15 16 17 18 19 20 21 22 23 24
499
FTUS44 KBRO 221935 AAA
TAFBRO
TAF AMD
KBRO 221935Z 2220/2318 34006KT P6SM OVC009
     FM230500 14005KT 2SM BR OVC003
      TEMPO 2309/2313 1/2SM FG VV002
     FM231500 15008KT 4SM BR BKN007=

USA.gov is the U.S. government's official web portal to all federal, state and local government web resources and services.